createdAt,value
2023-04-05T00:01:08.261Z,48.82
2023-04-05T00:03:36.507Z,48.82
2023-04-05T00:06:05.513Z,48.81
2023-04-05T00:08:33.526Z,48.97
2023-04-05T00:11:02.763Z,48.96
2023-04-05T00:13:31.522Z,48.95
2023-04-05T00:16:01.336Z,48.95
2023-04-05T00:18:34.404Z,48.93
2023-04-05T00:21:02.534Z,48.84
2023-04-05T00:23:37.500Z,48.88
2023-04-05T00:26:06.891Z,48.98
2023-04-05T00:28:35.371Z,49.01
2023-04-05T00:31:03.430Z,49.02
2023-04-05T00:33:31.298Z,48.87
2023-04-05T00:35:59.212Z,48.74
2023-04-05T00:38:27.269Z,48.82
2023-04-05T00:40:55.170Z,48.73
2023-04-05T00:43:24.394Z,48.73
2023-04-05T00:45:52.245Z,48.88
2023-04-05T00:48:20.214Z,48.54
2023-04-05T00:50:48.438Z,48.59
2023-04-05T00:53:16.296Z,48.59
2023-04-05T00:55:44.149Z,48.42
2023-04-05T00:58:12.734Z,48.50
2023-04-05T01:00:42.219Z,48.52
2023-04-05T01:03:10.237Z,48.62
2023-04-05T01:05:40.130Z,48.63
2023-04-05T01:08:13.115Z,48.63
2023-04-05T01:10:43.191Z,48.58
2023-04-05T01:13:11.221Z,48.31
2023-04-05T01:15:39.222Z,48.43
2023-04-05T01:18:10.686Z,48.25
2023-04-05T01:20:40.776Z,48.32
2023-04-05T01:23:47.438Z,48.20
2023-04-05T01:26:45.718Z,48.54
2023-04-05T01:29:48.180Z,48.22
2023-04-05T01:32:31.604Z,48.40
2023-04-05T01:35:03.193Z,48.13
2023-04-05T01:37:32.897Z,48.22
2023-04-05T01:40:00.815Z,48.40
2023-04-05T01:42:29.061Z,48.10
2023-04-05T01:44:58.518Z,48.07
2023-04-05T01:47:26.478Z,48.31
2023-04-05T01:49:54.414Z,48.30
2023-04-05T01:52:22.568Z,48.38
2023-04-05T01:54:50.423Z,48.22
2023-04-05T01:57:18.298Z,48.05
2023-04-05T01:59:46.198Z,48.16
2023-04-05T02:02:15.652Z,47.99
2023-04-05T02:04:43.519Z,48.20
2023-04-05T02:07:11.390Z,48.14
2023-04-05T02:09:39.247Z,48.09
2023-04-05T02:12:07.084Z,48.17
2023-04-05T02:14:35.408Z,48.01
2023-04-05T02:17:05.815Z,48.21
2023-04-05T02:19:40.736Z,48.01
2023-04-05T02:22:08.980Z,48.08
2023-04-05T02:24:36.851Z,48.22
2023-04-05T02:27:04.825Z,48.34
2023-04-05T02:29:32.642Z,48.46
2023-04-05T02:32:00.549Z,48.30
2023-04-05T02:34:28.568Z,48.44
2023-04-05T02:36:58.984Z,48.85
2023-04-05T02:39:29.089Z,48.75
2023-04-05T02:41:56.993Z,48.63
2023-04-05T02:44:24.882Z,48.68
2023-04-05T02:46:52.736Z,48.72
2023-04-05T02:49:20.990Z,48.69
2023-04-05T02:51:48.829Z,48.82
2023-04-05T02:54:18.119Z,48.71
2023-04-05T02:56:46.332Z,48.93
2023-04-05T02:59:14.851Z,48.74
2023-04-05T03:01:44.867Z,48.95
2023-04-05T03:04:14.663Z,48.96
2023-04-05T03:06:48.662Z,49.05
2023-04-05T03:09:17.985Z,48.90
2023-04-05T03:11:45.890Z,48.92
2023-04-05T03:14:13.802Z,49.10
2023-04-05T03:16:41.753Z,49.08
2023-04-05T03:19:09.916Z,49.22
2023-04-05T03:21:37.850Z,49.37
2023-04-05T03:24:07.193Z,49.41
2023-04-05T03:26:36.456Z,49.40
2023-04-05T03:29:04.287Z,49.72
2023-04-05T03:31:32.212Z,49.82
2023-04-05T03:34:00.155Z,49.92
2023-04-05T03:36:30.652Z,49.99
2023-04-05T03:38:58.829Z,50.28
2023-04-05T03:41:27.080Z,50.40
2023-04-05T03:43:56.517Z,50.67
2023-04-05T03:46:24.563Z,50.46
2023-04-05T03:48:52.842Z,50.66
2023-04-05T03:51:20.957Z,50.79
2023-04-05T03:53:48.856Z,50.89
2023-04-05T03:56:16.702Z,50.84
2023-04-05T03:58:44.564Z,50.94
2023-04-05T04:01:13.830Z,51.07
2023-04-05T04:03:41.768Z,51.28
2023-04-05T04:06:09.673Z,51.48
2023-04-05T04:08:37.608Z,51.45
2023-04-05T04:11:06.567Z,51.47
2023-04-05T04:13:34.472Z,51.57
2023-04-05T04:16:02.385Z,51.47
2023-04-05T04:18:31.683Z,51.68
2023-04-05T04:20:59.754Z,51.85
2023-04-05T04:23:28.924Z,51.95
2023-04-05T04:25:56.771Z,52.16
2023-04-05T04:28:27.945Z,52.23
2023-04-05T04:30:55.836Z,52.51
2023-04-05T04:33:24.145Z,52.43
2023-04-05T04:35:54.903Z,52.33
2023-04-05T04:38:25.953Z,52.36
2023-04-05T04:40:54.040Z,52.41
2023-04-05T04:43:27.362Z,52.42
2023-04-05T04:45:55.673Z,52.46
2023-04-05T04:48:23.579Z,52.53
2023-04-05T04:50:51.831Z,52.62
2023-04-05T04:53:24.203Z,52.74
2023-04-05T04:55:52.335Z,52.68
2023-04-05T04:58:20.293Z,52.76
2023-04-05T05:00:48.420Z,52.98
2023-04-05T05:03:16.640Z,53.07
2023-04-05T05:05:44.620Z,53.08
2023-04-05T05:08:12.705Z,53.11
2023-04-05T05:10:42.320Z,53.07
2023-04-05T05:13:11.220Z,53.28
2023-04-05T05:15:40.933Z,53.36
2023-04-05T05:18:09.080Z,53.30
2023-04-05T05:20:37.450Z,53.27
2023-04-05T05:23:06.030Z,53.40
2023-04-05T05:25:35.419Z,53.54
2023-04-05T05:28:05.106Z,53.52
2023-04-05T05:30:33.576Z,53.64
2023-04-05T05:33:05.528Z,53.94
2023-04-05T05:35:40.635Z,53.80
2023-04-05T05:38:10.763Z,53.98
2023-04-05T05:40:40.735Z,53.92
2023-04-05T05:43:10.618Z,54.07
2023-04-05T05:45:44.007Z,54.20
2023-04-05T05:48:12.142Z,54.25
2023-04-05T05:50:40.849Z,54.37
2023-04-05T05:53:08.911Z,54.41
2023-04-05T05:55:36.899Z,54.43
2023-04-05T05:58:05.187Z,54.47
2023-04-05T06:00:34.559Z,54.50
2023-04-05T06:03:02.537Z,54.43
2023-04-05T06:05:30.462Z,54.69
2023-04-05T06:07:58.317Z,54.69
2023-04-05T06:10:34.754Z,54.79
2023-04-05T06:13:02.764Z,54.91
2023-04-05T06:15:32.640Z,54.98
2023-04-05T06:18:02.176Z,55.17
2023-04-05T06:20:30.118Z,55.04
2023-04-05T06:22:57.980Z,55.03
2023-04-05T06:25:26.700Z,54.97
2023-04-05T06:27:54.605Z,55.02
2023-04-05T06:30:22.626Z,55.03
2023-04-05T06:32:54.854Z,54.88
2023-04-05T06:35:24.665Z,55.09
2023-04-05T06:37:52.606Z,54.91
2023-04-05T06:40:20.729Z,55.22
2023-04-05T06:42:48.721Z,55.20
2023-04-05T06:45:19.134Z,55.09
2023-04-05T06:47:47.162Z,55.31
2023-04-05T06:50:15.128Z,55.39
2023-04-05T06:52:44.445Z,55.41
2023-04-05T06:55:12.440Z,55.36
2023-04-05T06:57:40.397Z,55.58
2023-04-05T07:00:11.843Z,55.47
2023-04-05T07:02:41.339Z,55.36
2023-04-05T07:05:09.667Z,55.63
2023-04-05T07:07:40.282Z,55.80
2023-04-05T07:10:10.558Z,55.74
2023-04-05T07:12:39.079Z,55.70
2023-04-05T07:15:08.440Z,55.86
2023-04-05T07:17:36.602Z,55.88
2023-04-05T07:20:07.525Z,55.87
2023-04-05T07:22:35.825Z,55.80
2023-04-05T07:25:03.886Z,56.00
2023-04-05T07:27:33.280Z,56.05
2023-04-05T07:30:01.546Z,55.86
2023-04-05T07:32:29.698Z,56.13
2023-04-05T07:34:57.710Z,55.92
2023-04-05T07:37:27.348Z,56.25
2023-04-05T07:39:55.349Z,55.98
2023-04-05T07:42:23.274Z,56.20
2023-04-05T07:44:52.676Z,56.10
2023-04-05T07:47:20.562Z,55.90
2023-04-05T07:49:48.490Z,56.14
2023-04-05T07:52:16.392Z,56.15
2023-04-05T07:54:45.766Z,56.21
2023-04-05T07:57:17.734Z,56.22
2023-04-05T07:59:45.709Z,56.23
2023-04-05T08:02:15.193Z,56.41
2023-04-05T08:04:43.180Z,56.42
2023-04-05T08:07:11.290Z,56.20
2023-04-05T08:09:39.144Z,56.23
2023-04-05T08:12:07.776Z,56.20
2023-04-05T08:14:35.665Z,56.21
2023-04-05T08:17:03.583Z,56.29
2023-04-05T08:19:32.856Z,56.44
2023-04-05T08:22:00.804Z,56.58
2023-04-05T08:24:28.798Z,56.51
2023-04-05T08:26:56.783Z,56.70
2023-04-05T08:29:24.794Z,56.84
2023-04-05T08:31:52.759Z,56.78
2023-04-05T08:34:20.758Z,56.78
2023-04-05T08:36:50.385Z,56.93
2023-04-05T08:39:18.733Z,56.73
2023-04-05T08:41:49.322Z,56.55
2023-04-05T08:44:17.175Z,56.88
2023-04-05T08:46:45.054Z,56.68
2023-04-05T08:49:12.946Z,56.67
2023-04-05T08:51:40.949Z,56.76
2023-04-05T08:54:10.409Z,57.02
2023-04-05T08:56:38.358Z,57.03
2023-04-05T08:59:07.364Z,56.95
2023-04-05T09:01:39.296Z,56.87
2023-04-05T09:04:07.772Z,56.62
2023-04-05T09:06:36.878Z,56.59
2023-04-05T09:09:07.743Z,56.78
2023-04-05T09:11:37.226Z,56.63
2023-04-05T09:14:05.176Z,56.45
2023-04-05T09:16:33.907Z,56.39
2023-04-05T09:19:01.987Z,56.70
2023-04-05T09:21:30.457Z,56.65
2023-04-05T09:23:58.776Z,56.47
2023-04-05T09:26:27.330Z,56.22
2023-04-05T09:28:56.740Z,56.62
2023-04-05T09:31:38.022Z,56.84
2023-04-05T09:34:06.258Z,56.44
2023-04-05T09:36:34.751Z,56.38
2023-04-05T09:39:06.748Z,56.50
2023-04-05T09:41:34.784Z,56.61
2023-04-05T09:44:04.059Z,56.62
2023-04-05T09:46:34.097Z,56.38
2023-04-05T09:49:03.850Z,56.55
2023-04-05T09:51:35.201Z,56.63
2023-04-05T09:54:04.022Z,56.18
2023-04-05T09:56:33.106Z,56.37
2023-04-05T09:59:02.447Z,56.10
2023-04-05T10:01:33.262Z,55.92
2023-04-05T10:04:01.615Z,55.77
2023-04-05T10:06:39.238Z,55.78
2023-04-05T10:09:08.139Z,55.67
2023-04-05T10:11:36.377Z,55.73
2023-04-05T10:14:05.181Z,55.44
2023-04-05T10:16:37.954Z,55.59
2023-04-05T10:19:06.966Z,55.53
2023-04-05T10:21:35.408Z,55.56
2023-04-05T10:24:07.608Z,55.73
2023-04-05T10:26:39.543Z,55.79
2023-04-05T10:29:11.333Z,55.90
2023-04-05T10:31:44.666Z,55.66
2023-04-05T10:34:15.481Z,55.44
2023-04-05T10:36:46.621Z,55.46
2023-04-05T10:39:15.013Z,56.04
2023-04-05T10:41:44.166Z,56.16
2023-04-05T10:44:23.051Z,56.16
2023-04-05T10:46:56.868Z,56.28
2023-04-05T10:49:33.510Z,56.12
2023-04-05T10:52:01.916Z,56.32
2023-04-05T10:54:29.931Z,55.94
2023-04-05T10:56:57.845Z,55.83
2023-04-05T10:59:26.043Z,55.16
2023-04-05T11:01:55.557Z,54.79
2023-04-05T11:04:23.547Z,54.74
2023-04-05T11:07:11.592Z,54.11
2023-04-05T11:09:39.740Z,53.81
2023-04-05T11:12:07.837Z,53.68
2023-04-05T11:14:37.326Z,53.99
2023-04-05T11:17:06.888Z,53.65
2023-04-05T11:19:52.340Z,53.80
2023-04-05T11:22:27.306Z,54.00
2023-04-05T11:24:58.065Z,54.23
2023-04-05T11:27:26.834Z,54.34
2023-04-05T11:29:54.937Z,54.15
2023-04-05T11:32:24.568Z,54.21
2023-04-05T11:35:02.118Z,54.57
2023-04-05T11:37:55.395Z,54.74
2023-04-05T11:40:27.855Z,54.47
2023-04-05T11:43:06.046Z,54.75
2023-04-05T11:45:34.395Z,54.63
2023-04-05T11:48:06.064Z,54.47
2023-04-05T11:50:33.997Z,54.79
2023-04-05T11:53:14.357Z,54.88
2023-04-05T11:55:43.513Z,54.81
2023-04-05T11:58:15.755Z,54.98
2023-04-05T12:00:44.040Z,54.72
2023-04-05T12:03:16.766Z,54.48
2023-04-05T12:05:56.255Z,54.87
2023-04-05T12:08:24.531Z,54.71
2023-04-05T12:10:57.040Z,54.90
2023-04-05T12:13:29.430Z,54.74
2023-04-05T12:15:59.401Z,55.30
2023-04-05T12:18:29.166Z,55.18
2023-04-05T12:20:57.090Z,55.32
2023-04-05T12:23:25.052Z,54.97
2023-04-05T12:25:54.157Z,54.83
2023-04-05T12:28:22.107Z,54.88
2023-04-05T12:30:50.329Z,54.87
2023-04-05T12:33:29.597Z,55.08
2023-04-05T12:35:57.599Z,54.69
2023-04-05T12:38:27.148Z,54.84
2023-04-05T12:40:55.561Z,54.98
2023-04-05T12:43:23.591Z,54.82
2023-04-05T12:45:54.098Z,54.48
2023-04-05T12:48:23.798Z,54.43
2023-04-05T12:50:54.669Z,54.64
2023-04-05T12:53:24.033Z,54.46
2023-04-05T12:55:52.559Z,54.03
2023-04-05T12:58:20.901Z,54.29
2023-04-05T13:00:48.843Z,54.32
2023-04-05T13:03:18.222Z,54.12
2023-04-05T13:05:46.304Z,54.36
2023-04-05T13:08:15.687Z,54.74
2023-04-05T13:10:43.604Z,54.65
2023-04-05T13:13:11.477Z,54.89
2023-04-05T13:15:39.763Z,55.12
2023-04-05T13:18:07.939Z,55.36
2023-04-05T13:20:36.141Z,55.48
2023-04-05T13:23:04.090Z,55.30
2023-04-05T13:25:33.375Z,55.50
2023-04-05T13:28:01.251Z,55.35
2023-04-05T13:30:30.615Z,55.41
2023-04-05T13:32:58.701Z,55.47
2023-04-05T13:35:27.152Z,55.88
2023-04-05T13:37:55.130Z,56.08
2023-04-05T13:40:23.066Z,55.94
2023-04-05T13:42:52.337Z,56.19
2023-04-05T13:45:20.440Z,56.34
2023-04-05T13:47:48.570Z,56.57
2023-04-05T13:50:16.558Z,56.61
2023-04-05T13:52:44.465Z,57.06
2023-04-05T13:55:12.549Z,56.90
2023-04-05T13:57:40.477Z,57.06
2023-04-05T14:00:11.092Z,57.07
2023-04-05T14:02:39.186Z,57.14
2023-04-05T14:05:08.459Z,57.42
2023-04-05T14:07:36.504Z,57.12
2023-04-05T14:10:06.235Z,57.12
2023-04-05T14:12:34.988Z,57.13
2023-04-05T14:15:02.923Z,57.52
2023-04-05T14:17:32.267Z,57.31
2023-04-05T14:20:00.270Z,57.30
2023-04-05T14:22:28.205Z,57.44
2023-04-05T14:24:56.102Z,57.64
2023-04-05T14:27:27.136Z,57.41
2023-04-05T14:29:57.084Z,57.51
2023-04-05T14:32:25.582Z,57.68
2023-04-05T14:34:54.984Z,57.68
2023-04-05T14:37:22.879Z,58.20
2023-04-05T14:39:50.812Z,58.33
2023-04-05T14:42:18.722Z,57.95
2023-04-05T14:44:46.719Z,58.29
2023-04-05T14:47:14.714Z,58.56
2023-04-05T14:49:43.018Z,58.28
2023-04-05T14:52:12.398Z,58.44
2023-04-05T14:54:40.311Z,58.86
2023-04-05T14:57:08.236Z,58.50
2023-04-05T14:59:36.126Z,59.06
2023-04-05T15:02:04.219Z,59.01
2023-04-05T15:04:32.209Z,59.22
2023-04-05T15:07:00.137Z,59.12
2023-04-05T15:09:29.551Z,58.95
2023-04-05T15:11:57.504Z,58.91
2023-04-05T15:14:31.724Z,58.88
2023-04-05T15:17:00.592Z,59.19
2023-04-05T15:19:30.628Z,59.00
2023-04-05T15:21:58.611Z,59.34
2023-04-05T15:24:26.525Z,59.30
2023-04-05T15:27:01.754Z,59.47
2023-04-05T15:29:29.922Z,59.16
2023-04-05T15:31:58.599Z,59.22
2023-04-05T15:34:26.606Z,59.29
2023-04-05T15:36:54.912Z,59.30
2023-04-05T15:39:22.862Z,59.33
2023-04-05T15:41:50.825Z,59.41
2023-04-05T15:44:20.441Z,59.62
2023-04-05T15:46:48.675Z,59.70
2023-04-05T15:49:17.706Z,59.65
2023-04-05T15:51:45.714Z,59.59
2023-04-05T15:54:18.562Z,59.61
2023-04-05T15:56:46.503Z,59.82
2023-04-05T15:59:14.483Z,60.09
2023-04-05T16:01:43.927Z,60.01
2023-04-05T16:04:11.895Z,59.76
2023-04-05T16:06:39.820Z,59.90
2023-04-05T16:09:07.789Z,59.83
2023-04-05T16:11:35.717Z,59.81
2023-04-05T16:14:04.151Z,59.84
2023-04-05T16:16:41.924Z,59.92
2023-04-05T16:19:19.331Z,60.36
2023-04-05T16:21:47.647Z,60.14
2023-04-05T16:24:15.897Z,60.48
2023-04-05T16:26:43.912Z,59.98
2023-04-05T16:29:11.828Z,60.07
2023-04-05T16:31:39.844Z,59.99
2023-04-05T16:34:08.132Z,60.34
2023-04-05T16:36:37.701Z,60.11
2023-04-05T16:39:05.709Z,60.48
2023-04-05T16:41:33.967Z,60.36
2023-04-05T16:44:01.975Z,60.46
2023-04-05T16:46:32.222Z,60.33
2023-04-05T16:49:00.710Z,60.55
2023-04-05T16:51:28.834Z,60.54
2023-04-05T16:53:58.385Z,60.29
2023-04-05T16:56:26.282Z,60.39
2023-04-05T16:58:54.211Z,60.35
2023-04-05T17:01:22.175Z,60.53
2023-04-05T17:03:50.103Z,60.59
2023-04-05T17:06:18.012Z,60.82
2023-04-05T17:08:45.912Z,60.42
2023-04-05T17:11:15.217Z,60.40
2023-04-05T17:13:45.053Z,60.65
2023-04-05T17:16:13.686Z,60.57
2023-04-05T17:18:42.035Z,60.73
2023-04-05T17:21:10.068Z,60.75
2023-04-05T17:23:37.993Z,60.51
2023-04-05T17:26:06.037Z,60.57
2023-04-05T17:28:35.828Z,60.76
2023-04-05T17:31:03.939Z,60.79
2023-04-05T17:33:32.368Z,60.95
2023-04-05T17:36:00.321Z,60.64
2023-04-05T17:38:28.279Z,60.73
2023-04-05T17:40:57.341Z,60.78
2023-04-05T17:43:25.413Z,60.86
2023-04-05T17:45:55.482Z,61.10
2023-04-05T17:48:23.390Z,60.93
2023-04-05T17:50:51.272Z,61.01
2023-04-05T17:53:19.224Z,60.77
2023-04-05T17:55:47.200Z,60.78
2023-04-05T17:58:15.120Z,61.26
2023-04-05T18:00:43.048Z,61.08
2023-04-05T18:03:13.401Z,61.46
2023-04-05T18:05:41.504Z,61.18
2023-04-05T18:08:09.445Z,61.25
2023-04-05T18:10:37.322Z,61.53
2023-04-05T18:13:05.871Z,61.79
2023-04-05T18:15:33.850Z,62.11
2023-04-05T18:18:02.179Z,61.98
2023-04-05T18:20:31.511Z,62.40
2023-04-05T18:22:59.659Z,62.18
2023-04-05T18:25:27.768Z,62.18
2023-04-05T18:27:55.952Z,62.39
2023-04-05T18:30:24.105Z,62.28
2023-04-05T18:32:52.005Z,62.19
2023-04-05T18:35:20.025Z,62.27
2023-04-05T18:37:49.303Z,62.47
2023-04-05T18:40:17.758Z,62.37
2023-04-05T18:42:46.342Z,62.41
2023-04-05T18:45:14.251Z,62.70
2023-04-05T18:47:42.185Z,62.37
2023-04-05T18:50:11.037Z,62.40
2023-04-05T18:52:38.930Z,62.48
2023-04-05T18:55:09.054Z,62.69
2023-04-05T18:57:36.964Z,62.78
2023-04-05T19:00:05.553Z,62.48
2023-04-05T19:02:33.493Z,62.71
2023-04-05T19:05:01.412Z,62.42
2023-04-05T19:07:29.279Z,62.69
2023-04-05T19:09:57.111Z,62.71
2023-04-05T19:12:26.416Z,62.88
2023-04-05T19:14:54.308Z,62.93
2023-04-05T19:17:22.433Z,62.61
2023-04-05T19:19:50.342Z,62.77
2023-04-05T19:22:18.259Z,62.65
2023-04-05T19:24:46.163Z,63.08
2023-04-05T19:27:14.074Z,63.17
2023-04-05T19:29:43.650Z,63.30
2023-04-05T19:32:11.523Z,63.06
2023-04-05T19:34:39.697Z,63.25
2023-04-05T19:37:07.583Z,63.67
2023-04-05T19:39:35.854Z,63.70
2023-04-05T19:42:03.838Z,63.44
2023-04-05T19:44:51.636Z,63.64
2023-04-05T19:47:20.577Z,63.82
2023-04-05T19:49:48.899Z,63.55
2023-04-05T19:52:35.147Z,63.83
2023-04-05T19:55:03.023Z,64.00
2023-04-05T19:57:31.222Z,63.89
2023-04-05T20:00:00.668Z,64.02
2023-04-05T20:02:37.084Z,63.93
2023-04-05T20:05:06.394Z,63.68
2023-04-05T20:07:34.266Z,63.93
2023-04-05T20:10:02.127Z,63.93
2023-04-05T20:12:31.426Z,64.04
2023-04-05T20:15:00.680Z,64.12
2023-04-05T20:17:28.627Z,63.83
2023-04-05T20:19:57.705Z,63.91
2023-04-05T20:22:26.904Z,64.13
2023-04-05T20:24:54.864Z,64.01
2023-04-05T20:27:22.758Z,64.29
2023-04-05T20:29:52.407Z,64.25
2023-04-05T20:32:21.676Z,64.09
2023-04-05T20:34:49.644Z,63.92
2023-04-05T20:37:17.542Z,64.21
2023-04-05T20:39:45.517Z,63.84
2023-04-05T20:42:13.566Z,64.33
2023-04-05T20:44:41.509Z,64.26
2023-04-05T20:47:09.426Z,64.27
2023-04-05T20:49:38.658Z,64.33
2023-04-05T20:52:07.861Z,64.35
2023-04-05T20:54:35.820Z,64.22
2023-04-05T20:57:03.703Z,64.42
2023-04-05T20:59:31.605Z,64.24
2023-04-05T21:01:59.639Z,64.57
2023-04-05T21:04:29.980Z,64.46
2023-04-05T21:06:59.495Z,64.73
2023-04-05T21:09:27.862Z,64.31
2023-04-05T21:11:55.792Z,64.73
2023-04-05T21:14:23.772Z,64.43
2023-04-05T21:16:51.698Z,64.54
2023-04-05T21:19:19.691Z,64.78
2023-04-05T21:21:47.677Z,64.63
2023-04-05T21:24:17.015Z,64.81
2023-04-05T21:26:44.881Z,64.45
2023-04-05T21:29:14.104Z,64.69
2023-04-05T21:31:42.110Z,64.65
2023-04-05T21:34:10.012Z,64.57
2023-04-05T21:36:37.960Z,64.89
2023-04-05T21:39:08.782Z,64.93
2023-04-05T21:41:38.241Z,65.09
2023-04-05T21:44:06.576Z,64.78
2023-04-05T21:46:34.518Z,64.93
2023-04-05T21:49:02.434Z,65.07
2023-04-05T21:51:30.344Z,65.09
2023-04-05T21:53:58.322Z,64.90
2023-04-05T21:56:26.202Z,64.86
2023-04-05T21:58:55.511Z,64.88
2023-04-05T22:01:23.804Z,64.86
2023-04-05T22:03:52.260Z,64.85
2023-04-05T22:06:20.178Z,65.19
2023-04-05T22:08:50.063Z,64.97
2023-04-05T22:11:18.308Z,65.10
2023-04-05T22:13:46.200Z,65.11
2023-04-05T22:16:15.524Z,64.96
2023-04-05T22:18:44.026Z,64.82
2023-04-05T22:21:12.321Z,65.16
2023-04-05T22:23:42.812Z,64.96
2023-04-05T22:26:10.984Z,65.08
2023-04-05T22:28:38.871Z,64.92
2023-04-05T22:31:06.970Z,65.13
2023-04-05T22:33:36.242Z,65.11
2023-04-05T22:36:04.323Z,64.99
2023-04-05T22:38:32.234Z,65.04
2023-04-05T22:41:00.126Z,65.02
2023-04-05T22:43:28.046Z,65.27
2023-04-05T22:45:56.204Z,65.05
2023-04-05T22:48:24.086Z,65.24
2023-04-05T22:50:53.320Z,65.16
2023-04-05T22:53:21.273Z,65.29
2023-04-05T22:55:49.170Z,64.98
2023-04-05T22:58:17.348Z,65.09
2023-04-05T23:00:45.231Z,65.03
2023-04-05T23:03:13.074Z,64.98
2023-04-05T23:05:41.500Z,65.08
2023-04-05T23:08:10.789Z,65.36
2023-04-05T23:10:38.703Z,65.22
2023-04-05T23:13:07.152Z,65.26
2023-04-05T23:15:35.112Z,65.21
2023-04-05T23:18:03.113Z,65.33
2023-04-05T23:20:30.990Z,65.37
2023-04-05T23:22:58.861Z,65.40
2023-04-05T23:25:28.097Z,65.78
2023-04-05T23:27:56.122Z,65.63
2023-04-05T23:30:24.025Z,65.60
2023-04-05T23:32:51.938Z,65.71
2023-04-05T23:35:19.945Z,66.01
2023-04-05T23:37:47.837Z,66.35
2023-04-05T23:40:16.156Z,66.28
2023-04-05T23:42:45.720Z,66.13
2023-04-05T23:45:13.609Z,66.27
2023-04-05T23:47:41.523Z,66.46
2023-04-05T23:50:10.859Z,66.42
2023-04-05T23:52:38.750Z,66.20
2023-04-05T23:55:07.096Z,66.21
2023-04-05T23:57:35.007Z,66.60
